sensor_id;sensor_type;location;lat;lon;timestamp;P1;durP1;ratioP1;P2;durP2;ratioP2
79640;SDS011;69115;49.904;14.390;2024-01-30T00:00:35;94.57;;;31.45;;
79640;SDS011;69115;49.904;14.390;2024-01-30T00:03:00;83.40;;;32.45;;
79640;SDS011;69115;49.904;14.390;2024-01-30T00:05:25;75.00;;;32.35;;
79640;SDS011;69115;49.904;14.390;2024-01-30T00:07:51;77.82;;;32.25;;
79640;SDS011;69115;49.904;14.390;2024-01-30T00:10:16;68.55;;;29.52;;
79640;SDS011;69115;49.904;14.390;2024-01-30T00:12:42;73.03;;;30.83;;
79640;SDS011;69115;49.904;14.390;2024-01-30T00:15:07;72.05;;;32.90;;
79640;SDS011;69115;49.904;14.390;2024-01-30T00:17:35;76.97;;;32.42;;
79640;SDS011;69115;49.904;14.390;2024-01-30T00:20:01;70.75;;;30.13;;
79640;SDS011;69115;49.904;14.390;2024-01-30T00:22:30;70.68;;;31.13;;
79640;SDS011;69115;49.904;14.390;2024-01-30T00:24:55;71.15;;;30.55;;
79640;SDS011;69115;49.904;14.390;2024-01-30T00:27:21;70.60;;;31.73;;
79640;SDS011;69115;49.904;14.390;2024-01-30T00:29:46;64.85;;;30.45;;
79640;SDS011;69115;49.904;14.390;2024-01-30T00:32:12;70.53;;;29.83;;
79640;SDS011;69115;49.904;14.390;2024-01-30T00:34:37;64.50;;;31.00;;
79640;SDS011;69115;49.904;14.390;2024-01-30T00:37:02;66.22;;;30.17;;
79640;SDS011;69115;49.904;14.390;2024-01-30T00:39:28;66.78;;;30.60;;
79640;SDS011;69115;49.904;14.390;2024-01-30T00:41:53;100.03;;;31.73;;
79640;SDS011;69115;49.904;14.390;2024-01-30T00:44:19;69.05;;;29.65;;
79640;SDS011;69115;49.904;14.390;2024-01-30T00:46:44;86.47;;;30.83;;
79640;SDS011;69115;49.904;14.390;2024-01-30T00:49:10;76.10;;;30.67;;
79640;SDS011;69115;49.904;14.390;2024-01-30T00:51:35;120.13;;;30.33;;
79640;SDS011;69115;49.904;14.390;2024-01-30T00:54:01;99.28;;;31.52;;
79640;SDS011;69115;49.904;14.390;2024-01-30T00:56:27;68.10;;;29.33;;
79640;SDS011;69115;49.904;14.390;2024-01-30T00:58:53;72.50;;;30.48;;
79640;SDS011;69115;49.904;14.390;2024-01-30T01:01:19;77.47;;;30.50;;
79640;SDS011;69115;49.904;14.390;2024-01-30T01:03:44;91.40;;;29.23;;
79640;SDS011;69115;49.904;14.390;2024-01-30T01:06:09;77.57;;;30.98;;
79640;SDS011;69115;49.904;14.390;2024-01-30T01:08:35;72.00;;;29.75;;
79640;SDS011;69115;49.904;14.390;2024-01-30T01:11:01;64.63;;;27.75;;
79640;SDS011;69115;49.904;14.390;2024-01-30T01:13:26;126.85;;;30.10;;
79640;SDS011;69115;49.904;14.390;2024-01-30T01:15:51;69.10;;;29.60;;
79640;SDS011;69115;49.904;14.390;2024-01-30T01:18:17;95.97;;;29.92;;
79640;SDS011;69115;49.904;14.390;2024-01-30T01:20:42;83.30;;;29.63;;
79640;SDS011;69115;49.904;14.390;2024-01-30T01:23:08;77.68;;;31.08;;
79640;SDS011;69115;49.904;14.390;2024-01-30T01:25:33;72.82;;;30.77;;
79640;SDS011;69115;49.904;14.390;2024-01-30T01:27:58;122.93;;;29.83;;
79640;SDS011;69115;49.904;14.390;2024-01-30T01:30:26;70.50;;;27.92;;
79640;SDS011;69115;49.904;14.390;2024-01-30T01:32:51;102.00;;;31.73;;
79640;SDS011;69115;49.904;14.390;2024-01-30T01:35:23;74.90;;;26.90;;
79640;SDS011;69115;49.904;14.390;2024-01-30T01:37:52;73.78;;;29.65;;
79640;SDS011;69115;49.904;14.390;2024-01-30T01:40:21;85.65;;;29.80;;
79640;SDS011;69115;49.904;14.390;2024-01-30T01:42:50;94.68;;;28.88;;
79640;SDS011;69115;49.904;14.390;2024-01-30T01:45:19;100.40;;;30.90;;
79640;SDS011;69115;49.904;14.390;2024-01-30T01:47:46;84.97;;;29.83;;
79640;SDS011;69115;49.904;14.390;2024-01-30T01:50:13;73.32;;;28.55;;
79640;SDS011;69115;49.904;14.390;2024-01-30T01:52:43;80.20;;;30.10;;
79640;SDS011;69115;49.904;14.390;2024-01-30T01:55:09;81.40;;;29.48;;
79640;SDS011;69115;49.904;14.390;2024-01-30T01:57:34;84.88;;;31.88;;
79640;SDS011;69115;49.904;14.390;2024-01-30T02:00:01;85.50;;;27.88;;
79640;SDS011;69115;49.904;14.390;2024-01-30T02:02:28;119.30;;;30.20;;
79640;SDS011;69115;49.904;14.390;2024-01-30T02:04:56;66.72;;;28.38;;
79640;SDS011;69115;49.904;14.390;2024-01-30T02:07:22;66.90;;;28.35;;
79640;SDS011;69115;49.904;14.390;2024-01-30T02:09:47;79.75;;;30.58;;
79640;SDS011;69115;49.904;14.390;2024-01-30T02:12:13;79.35;;;29.27;;
79640;SDS011;69115;49.904;14.390;2024-01-30T02:14:45;78.53;;;30.70;;
79640;SDS011;69115;49.904;14.390;2024-01-30T02:17:11;60.80;;;28.60;;
79640;SDS011;69115;49.904;14.390;2024-01-30T02:19:37;63.53;;;27.13;;
79640;SDS011;69115;49.904;14.390;2024-01-30T02:22:02;63.25;;;27.00;;
79640;SDS011;69115;49.904;14.390;2024-01-30T02:24:28;95.28;;;29.52;;
79640;SDS011;69115;49.904;14.390;2024-01-30T02:26:53;70.18;;;27.60;;
79640;SDS011;69115;49.904;14.390;2024-01-30T02:29:18;79.05;;;29.45;;
79640;SDS011;69115;49.904;14.390;2024-01-30T02:31:44;67.35;;;28.20;;
79640;SDS011;69115;49.904;14.390;2024-01-30T02:34:11;76.47;;;29.73;;
79640;SDS011;69115;49.904;14.390;2024-01-30T02:36:36;85.50;;;29.45;;
79640;SDS011;69115;49.904;14.390;2024-01-30T02:39:02;64.82;;;26.92;;
79640;SDS011;69115;49.904;14.390;2024-01-30T02:41:28;72.75;;;29.45;;
79640;SDS011;69115;49.904;14.390;2024-01-30T02:43:53;81.53;;;30.20;;
79640;SDS011;69115;49.904;14.390;2024-01-30T02:46:19;81.50;;;30.60;;
79640;SDS011;69115;49.904;14.390;2024-01-30T02:48:44;78.00;;;29.75;;
79640;SDS011;69115;49.904;14.390;2024-01-30T02:51:09;145.05;;;30.67;;
79640;SDS011;69115;49.904;14.390;2024-01-30T02:53:35;84.85;;;31.13;;
79640;SDS011;69115;49.904;14.390;2024-01-30T02:56:02;80.55;;;28.33;;
79640;SDS011;69115;49.904;14.390;2024-01-30T02:58:27;74.05;;;29.35;;
79640;SDS011;69115;49.904;14.390;2024-01-30T03:00:53;66.80;;;28.10;;
79640;SDS011;69115;49.904;14.390;2024-01-30T03:03:18;81.85;;;30.00;;
79640;SDS011;69115;49.904;14.390;2024-01-30T03:05:43;70.25;;;28.35;;
79640;SDS011;69115;49.904;14.390;2024-01-30T03:08:09;78.10;;;28.88;;
79640;SDS011;69115;49.904;14.390;2024-01-30T03:10:35;59.30;;;25.90;;
79640;SDS011;69115;49.904;14.390;2024-01-30T03:13:00;75.50;;;28.38;;
79640;SDS011;69115;49.904;14.390;2024-01-30T03:15:26;130.98;;;31.05;;
79640;SDS011;69115;49.904;14.390;2024-01-30T03:17:51;83.18;;;28.98;;
79640;SDS011;69115;49.904;14.390;2024-01-30T03:20:16;84.95;;;28.38;;
79640;SDS011;69115;49.904;14.390;2024-01-30T03:22:42;73.18;;;29.52;;
79640;SDS011;69115;49.904;14.390;2024-01-30T03:25:07;99.82;;;30.45;;
79640;SDS011;69115;49.904;14.390;2024-01-30T03:27:33;60.22;;;25.63;;
79640;SDS011;69115;49.904;14.390;2024-01-30T03:29:58;84.57;;;29.08;;
79640;SDS011;69115;49.904;14.390;2024-01-30T03:32:23;96.40;;;30.33;;
79640;SDS011;69115;49.904;14.390;2024-01-30T03:34:49;80.80;;;29.48;;
79640;SDS011;69115;49.904;14.390;2024-01-30T03:37:15;88.57;;;28.40;;
79640;SDS011;69115;49.904;14.390;2024-01-30T03:39:40;73.53;;;28.42;;
79640;SDS011;69115;49.904;14.390;2024-01-30T03:42:05;78.28;;;29.95;;
79640;SDS011;69115;49.904;14.390;2024-01-30T03:44:31;91.97;;;28.38;;
79640;SDS011;69115;49.904;14.390;2024-01-30T03:46:56;74.07;;;28.77;;
79640;SDS011;69115;49.904;14.390;2024-01-30T03:49:21;72.65;;;27.92;;
79640;SDS011;69115;49.904;14.390;2024-01-30T03:51:47;64.95;;;27.38;;
79640;SDS011;69115;49.904;14.390;2024-01-30T03:54:12;69.30;;;26.95;;
79640;SDS011;69115;49.904;14.390;2024-01-30T03:56:38;69.25;;;27.48;;
79640;SDS011;69115;49.904;14.390;2024-01-30T03:59:03;92.00;;;29.15;;
79640;SDS011;69115;49.904;14.390;2024-01-30T04:01:29;75.85;;;31.10;;
79640;SDS011;69115;49.904;14.390;2024-01-30T04:03:54;80.40;;;30.92;;
79640;SDS011;69115;49.904;14.390;2024-01-30T04:06:19;72.78;;;29.90;;
79640;SDS011;69115;49.904;14.390;2024-01-30T04:08:45;95.28;;;29.63;;
79640;SDS011;69115;49.904;14.390;2024-01-30T04:11:10;72.90;;;29.05;;
79640;SDS011;69115;49.904;14.390;2024-01-30T04:13:36;92.43;;;30.55;;
79640;SDS011;69115;49.904;14.390;2024-01-30T04:16:01;75.55;;;27.60;;
79640;SDS011;69115;49.904;14.390;2024-01-30T04:18:27;89.22;;;30.10;;
79640;SDS011;69115;49.904;14.390;2024-01-30T04:20:53;79.53;;;30.02;;
79640;SDS011;69115;49.904;14.390;2024-01-30T04:23:18;75.65;;;29.80;;
79640;SDS011;69115;49.904;14.390;2024-01-30T04:25:44;72.25;;;26.52;;
79640;SDS011;69115;49.904;14.390;2024-01-30T04:28:09;78.47;;;28.88;;
79640;SDS011;69115;49.904;14.390;2024-01-30T04:30:37;80.05;;;29.15;;
79640;SDS011;69115;49.904;14.390;2024-01-30T04:33:02;68.70;;;27.13;;
79640;SDS011;69115;49.904;14.390;2024-01-30T04:35:28;64.78;;;26.95;;
79640;SDS011;69115;49.904;14.390;2024-01-30T04:37:54;72.63;;;30.55;;
79640;SDS011;69115;49.904;14.390;2024-01-30T04:40:20;76.25;;;29.50;;
79640;SDS011;69115;49.904;14.390;2024-01-30T04:42:46;84.40;;;32.53;;
79640;SDS011;69115;49.904;14.390;2024-01-30T04:45:11;71.30;;;27.25;;
79640;SDS011;69115;49.904;14.390;2024-01-30T04:47:37;67.10;;;28.13;;
79640;SDS011;69115;49.904;14.390;2024-01-30T04:50:03;79.43;;;29.35;;
79640;SDS011;69115;49.904;14.390;2024-01-30T04:52:30;70.15;;;28.17;;
79640;SDS011;69115;49.904;14.390;2024-01-30T04:54:55;76.85;;;28.67;;
79640;SDS011;69115;49.904;14.390;2024-01-30T04:57:20;71.60;;;27.98;;
79640;SDS011;69115;49.904;14.390;2024-01-30T04:59:46;80.45;;;29.00;;
79640;SDS011;69115;49.904;14.390;2024-01-30T05:02:11;64.10;;;28.05;;
79640;SDS011;69115;49.904;14.390;2024-01-30T05:04:36;77.60;;;29.77;;
79640;SDS011;69115;49.904;14.390;2024-01-30T05:07:02;68.05;;;27.02;;
79640;SDS011;69115;49.904;14.390;2024-01-30T05:09:27;82.47;;;27.83;;
79640;SDS011;69115;49.904;14.390;2024-01-30T05:11:53;112.90;;;30.52;;
79640;SDS011;69115;49.904;14.390;2024-01-30T05:14:19;68.78;;;28.15;;
79640;SDS011;69115;49.904;14.390;2024-01-30T05:16:44;70.78;;;29.25;;
79640;SDS011;69115;49.904;14.390;2024-01-30T05:19:12;63.85;;;26.75;;
79640;SDS011;69115;49.904;14.390;2024-01-30T05:21:39;65.78;;;27.15;;
79640;SDS011;69115;49.904;14.390;2024-01-30T05:24:04;69.28;;;26.25;;
79640;SDS011;69115;49.904;14.390;2024-01-30T05:26:30;73.05;;;28.88;;
79640;SDS011;69115;49.904;14.390;2024-01-30T05:28:55;76.80;;;28.27;;
79640;SDS011;69115;49.904;14.390;2024-01-30T05:31:21;74.05;;;28.65;;
79640;SDS011;69115;49.904;14.390;2024-01-30T05:33:46;78.22;;;30.13;;
79640;SDS011;69115;49.904;14.390;2024-01-30T05:36:12;73.60;;;29.52;;
79640;SDS011;69115;49.904;14.390;2024-01-30T05:38:40;73.50;;;29.58;;
79640;SDS011;69115;49.904;14.390;2024-01-30T05:41:05;72.72;;;29.90;;
79640;SDS011;69115;49.904;14.390;2024-01-30T05:43:31;74.38;;;29.65;;
79640;SDS011;69115;49.904;14.390;2024-01-30T05:45:56;72.13;;;28.50;;
79640;SDS011;69115;49.904;14.390;2024-01-30T05:48:22;74.43;;;29.55;;
79640;SDS011;69115;49.904;14.390;2024-01-30T05:50:47;78.20;;;30.88;;
79640;SDS011;69115;49.904;14.390;2024-01-30T05:53:12;77.45;;;28.73;;
79640;SDS011;69115;49.904;14.390;2024-01-30T05:55:38;77.53;;;28.77;;
79640;SDS011;69115;49.904;14.390;2024-01-30T05:58:03;71.70;;;28.40;;
79640;SDS011;69115;49.904;14.390;2024-01-30T06:00:29;83.57;;;29.80;;
79640;SDS011;69115;49.904;14.390;2024-01-30T06:02:55;75.05;;;30.73;;
79640;SDS011;69115;49.904;14.390;2024-01-30T06:05:20;73.47;;;29.27;;
79640;SDS011;69115;49.904;14.390;2024-01-30T06:07:45;82.78;;;30.20;;
79640;SDS011;69115;49.904;14.390;2024-01-30T06:10:11;70.03;;;28.83;;
79640;SDS011;69115;49.904;14.390;2024-01-30T06:12:37;81.28;;;28.60;;
79640;SDS011;69115;49.904;14.390;2024-01-30T06:15:03;77.30;;;30.15;;
79640;SDS011;69115;49.904;14.390;2024-01-30T06:17:29;80.88;;;31.40;;
79640;SDS011;69115;49.904;14.390;2024-01-30T06:19:54;74.40;;;30.58;;
79640;SDS011;69115;49.904;14.390;2024-01-30T06:22:19;79.30;;;28.83;;
79640;SDS011;69115;49.904;14.390;2024-01-30T06:24:45;83.32;;;30.42;;
79640;SDS011;69115;49.904;14.390;2024-01-30T06:27:12;79.13;;;30.27;;
79640;SDS011;69115;49.904;14.390;2024-01-30T06:29:38;80.53;;;29.83;;
79640;SDS011;69115;49.904;14.390;2024-01-30T06:32:04;65.55;;;28.42;;
79640;SDS011;69115;49.904;14.390;2024-01-30T06:34:29;81.07;;;30.00;;
79640;SDS011;69115;49.904;14.390;2024-01-30T06:36:55;79.60;;;30.27;;
79640;SDS011;69115;49.904;14.390;2024-01-30T06:39:20;74.63;;;30.15;;
79640;SDS011;69115;49.904;14.390;2024-01-30T06:41:45;72.97;;;29.02;;
79640;SDS011;69115;49.904;14.390;2024-01-30T06:44:11;76.85;;;31.08;;
79640;SDS011;69115;49.904;14.390;2024-01-30T06:46:37;71.65;;;30.17;;
79640;SDS011;69115;49.904;14.390;2024-01-30T06:49:03;77.75;;;30.33;;
79640;SDS011;69115;49.904;14.390;2024-01-30T06:51:28;77.35;;;32.63;;
79640;SDS011;69115;49.904;14.390;2024-01-30T06:53:54;84.38;;;32.25;;
79640;SDS011;69115;49.904;14.390;2024-01-30T06:56:19;81.63;;;34.28;;
79640;SDS011;69115;49.904;14.390;2024-01-30T06:58:49;75.43;;;31.05;;
79640;SDS011;69115;49.904;14.390;2024-01-30T07:01:15;82.47;;;32.05;;
79640;SDS011;69115;49.904;14.390;2024-01-30T07:03:40;81.03;;;32.20;;
79640;SDS011;69115;49.904;14.390;2024-01-30T07:06:06;88.53;;;34.78;;
79640;SDS011;69115;49.904;14.390;2024-01-30T07:08:32;86.28;;;34.17;;
79640;SDS011;69115;49.904;14.390;2024-01-30T07:10:57;73.68;;;29.17;;
79640;SDS011;69115;49.904;14.390;2024-01-30T07:13:23;72.13;;;30.17;;
79640;SDS011;69115;49.904;14.390;2024-01-30T07:15:48;70.88;;;30.45;;
79640;SDS011;69115;49.904;14.390;2024-01-30T07:18:13;70.47;;;29.25;;
79640;SDS011;69115;49.904;14.390;2024-01-30T07:20:39;70.05;;;28.65;;
79640;SDS011;69115;49.904;14.390;2024-01-30T07:23:14;68.75;;;29.00;;
79640;SDS011;69115;49.904;14.390;2024-01-30T07:25:41;75.05;;;30.20;;
79640;SDS011;69115;49.904;14.390;2024-01-30T07:28:07;74.90;;;30.13;;
79640;SDS011;69115;49.904;14.390;2024-01-30T07:30:35;76.30;;;32.38;;
79640;SDS011;69115;49.904;14.390;2024-01-30T07:33:00;71.53;;;30.58;;
79640;SDS011;69115;49.904;14.390;2024-01-30T07:35:26;78.45;;;33.50;;
79640;SDS011;69115;49.904;14.390;2024-01-30T07:37:51;78.68;;;34.22;;
79640;SDS011;69115;49.904;14.390;2024-01-30T07:40:17;75.65;;;31.92;;
79640;SDS011;69115;49.904;14.390;2024-01-30T07:42:42;81.63;;;32.50;;
79640;SDS011;69115;49.904;14.390;2024-01-30T07:45:08;79.68;;;32.38;;
79640;SDS011;69115;49.904;14.390;2024-01-30T07:47:34;73.72;;;32.13;;
79640;SDS011;69115;49.904;14.390;2024-01-30T07:50:02;76.38;;;33.25;;
79640;SDS011;69115;49.904;14.390;2024-01-30T07:52:31;75.25;;;32.10;;
79640;SDS011;69115;49.904;14.390;2024-01-30T07:54:56;83.43;;;33.45;;
79640;SDS011;69115;49.904;14.390;2024-01-30T07:57:21;79.50;;;31.20;;
79640;SDS011;69115;49.904;14.390;2024-01-30T07:59:47;84.38;;;36.33;;
79640;SDS011;69115;49.904;14.390;2024-01-30T08:02:13;84.75;;;32.60;;
79640;SDS011;69115;49.904;14.390;2024-01-30T08:04:38;78.50;;;32.90;;
79640;SDS011;69115;49.904;14.390;2024-01-30T08:07:04;79.32;;;32.80;;
79640;SDS011;69115;49.904;14.390;2024-01-30T08:09:29;78.88;;;33.65;;
79640;SDS011;69115;49.904;14.390;2024-01-30T08:11:54;80.43;;;32.10;;
79640;SDS011;69115;49.904;14.390;2024-01-30T08:14:20;77.88;;;32.35;;
79640;SDS011;69115;49.904;14.390;2024-01-30T08:16:45;80.68;;;34.72;;
79640;SDS011;69115;49.904;14.390;2024-01-30T08:19:11;83.63;;;32.80;;
79640;SDS011;69115;49.904;14.390;2024-01-30T08:21:36;92.47;;;35.95;;
79640;SDS011;69115;49.904;14.390;2024-01-30T08:24:03;87.68;;;34.05;;
79640;SDS011;69115;49.904;14.390;2024-01-30T08:26:29;85.82;;;33.50;;
79640;SDS011;69115;49.904;14.390;2024-01-30T08:28:55;88.15;;;38.53;;
79640;SDS011;69115;49.904;14.390;2024-01-30T08:31:21;98.20;;;38.53;;
79640;SDS011;69115;49.904;14.390;2024-01-30T08:33:48;87.55;;;37.35;;
79640;SDS011;69115;49.904;14.390;2024-01-30T08:36:15;83.95;;;35.85;;
79640;SDS011;69115;49.904;14.390;2024-01-30T08:38:41;80.65;;;34.08;;
79640;SDS011;69115;49.904;14.390;2024-01-30T08:41:07;84.45;;;34.97;;
79640;SDS011;69115;49.904;14.390;2024-01-30T08:43:32;84.55;;;33.97;;
79640;SDS011;69115;49.904;14.390;2024-01-30T08:46:01;72.78;;;32.58;;
79640;SDS011;69115;49.904;14.390;2024-01-30T08:48:26;76.30;;;32.63;;
79640;SDS011;69115;49.904;14.390;2024-01-30T08:50:52;80.47;;;32.42;;
79640;SDS011;69115;49.904;14.390;2024-01-30T08:53:18;83.07;;;33.95;;
79640;SDS011;69115;49.904;14.390;2024-01-30T08:55:43;83.25;;;35.08;;
79640;SDS011;69115;49.904;14.390;2024-01-30T08:58:09;76.63;;;33.00;;
79640;SDS011;69115;49.904;14.390;2024-01-30T09:00:34;81.50;;;34.63;;
79640;SDS011;69115;49.904;14.390;2024-01-30T09:03:00;80.03;;;33.28;;
79640;SDS011;69115;49.904;14.390;2024-01-30T09:05:25;75.03;;;33.58;;
79640;SDS011;69115;49.904;14.390;2024-01-30T09:07:50;70.07;;;31.77;;
79640;SDS011;69115;49.904;14.390;2024-01-30T09:10:16;72.10;;;32.65;;
79640;SDS011;69115;49.904;14.390;2024-01-30T09:12:41;78.15;;;31.60;;
79640;SDS011;69115;49.904;14.390;2024-01-30T09:15:07;77.53;;;34.88;;
79640;SDS011;69115;49.904;14.390;2024-01-30T09:17:33;74.90;;;31.23;;
79640;SDS011;69115;49.904;14.390;2024-01-30T09:19:59;74.13;;;33.67;;
79640;SDS011;69115;49.904;14.390;2024-01-30T09:22:24;74.65;;;32.53;;
79640;SDS011;69115;49.904;14.390;2024-01-30T09:24:51;71.43;;;32.97;;
79640;SDS011;69115;49.904;14.390;2024-01-30T09:27:16;72.35;;;32.25;;
79640;SDS011;69115;49.904;14.390;2024-01-30T09:29:42;73.47;;;32.50;;
79640;SDS011;69115;49.904;14.390;2024-01-30T09:32:07;77.15;;;33.92;;
79640;SDS011;69115;49.904;14.390;2024-01-30T09:34:34;78.57;;;33.90;;
79640;SDS011;69115;49.904;14.390;2024-01-30T09:36:59;74.60;;;33.70;;
79640;SDS011;69115;49.904;14.390;2024-01-30T09:39:25;73.05;;;34.17;;
79640;SDS011;69115;49.904;14.390;2024-01-30T09:44:44;73.43;;;30.85;;
79640;SDS011;69115;49.904;14.390;2024-01-30T09:47:12;70.03;;;31.98;;
79640;SDS011;69115;49.904;14.390;2024-01-30T09:49:38;78.70;;;32.03;;
79640;SDS011;69115;49.904;14.390;2024-01-30T09:52:05;69.95;;;32.30;;
79640;SDS011;69115;49.904;14.390;2024-01-30T09:54:31;74.82;;;31.63;;
79640;SDS011;69115;49.904;14.390;2024-01-30T09:56:57;76.50;;;31.15;;
79640;SDS011;69115;49.904;14.390;2024-01-30T09:59:23;71.28;;;31.23;;
79640;SDS011;69115;49.904;14.390;2024-01-30T10:01:49;75.57;;;32.20;;
79640;SDS011;69115;49.904;14.390;2024-01-30T10:04:15;76.03;;;31.45;;
79640;SDS011;69115;49.904;14.390;2024-01-30T10:06:41;79.18;;;33.67;;
79640;SDS011;69115;49.904;14.390;2024-01-30T10:09:06;83.32;;;36.05;;
79640;SDS011;69115;49.904;14.390;2024-01-30T10:11:33;73.60;;;33.70;;
79640;SDS011;69115;49.904;14.390;2024-01-30T10:14:00;74.43;;;30.90;;
79640;SDS011;69115;49.904;14.390;2024-01-30T10:16:25;72.55;;;30.90;;
79640;SDS011;69115;49.904;14.390;2024-01-30T10:18:51;73.75;;;31.25;;
79640;SDS011;69115;49.904;14.390;2024-01-30T10:21:16;76.57;;;30.95;;
79640;SDS011;69115;49.904;14.390;2024-01-30T10:23:43;66.50;;;30.38;;
79640;SDS011;69115;49.904;14.390;2024-01-30T10:26:09;69.97;;;31.77;;
79640;SDS011;69115;49.904;14.390;2024-01-30T10:28:35;59.28;;;25.10;;
79640;SDS011;69115;49.904;14.390;2024-01-30T10:31:01;67.00;;;27.77;;
79640;SDS011;69115;49.904;14.390;2024-01-30T10:33:30;69.00;;;28.20;;
79640;SDS011;69115;49.904;14.390;2024-01-30T10:36:05;68.18;;;28.20;;
79640;SDS011;69115;49.904;14.390;2024-01-30T10:38:31;66.35;;;28.02;;
79640;SDS011;69115;49.904;14.390;2024-01-30T10:41:01;59.38;;;27.27;;
79640;SDS011;69115;49.904;14.390;2024-01-30T10:43:30;64.82;;;29.17;;
79640;SDS011;69115;49.904;14.390;2024-01-30T10:46:19;63.15;;;26.23;;
79640;SDS011;69115;49.904;14.390;2024-01-30T10:48:50;61.33;;;26.45;;
79640;SDS011;69115;49.904;14.390;2024-01-30T10:51:22;67.88;;;27.67;;
79640;SDS011;69115;49.904;14.390;2024-01-30T10:53:49;63.85;;;26.77;;
79640;SDS011;69115;49.904;14.390;2024-01-30T10:56:14;61.00;;;25.38;;
79640;SDS011;69115;49.904;14.390;2024-01-30T10:58:41;50.50;;;23.58;;
79640;SDS011;69115;49.904;14.390;2024-01-30T11:01:07;55.42;;;23.02;;
79640;SDS011;69115;49.904;14.390;2024-01-30T11:03:33;52.58;;;23.77;;
79640;SDS011;69115;49.904;14.390;2024-01-30T11:06:01;51.65;;;22.92;;
79640;SDS011;69115;49.904;14.390;2024-01-30T11:08:27;57.38;;;24.42;;
79640;SDS011;69115;49.904;14.390;2024-01-30T11:10:57;53.00;;;24.05;;
79640;SDS011;69115;49.904;14.390;2024-01-30T11:13:29;54.97;;;23.85;;
79640;SDS011;69115;49.904;14.390;2024-01-30T11:15:55;56.38;;;24.98;;
79640;SDS011;69115;49.904;14.390;2024-01-30T11:18:25;52.10;;;23.05;;
79640;SDS011;69115;49.904;14.390;2024-01-30T11:20:51;55.92;;;23.20;;
79640;SDS011;69115;49.904;14.390;2024-01-30T11:23:16;57.00;;;24.33;;
79640;SDS011;69115;49.904;14.390;2024-01-30T11:25:43;50.33;;;22.15;;
79640;SDS011;69115;49.904;14.390;2024-01-30T11:28:16;56.90;;;24.25;;
79640;SDS011;69115;49.904;14.390;2024-01-30T11:30:44;51.38;;;23.15;;
79640;SDS011;69115;49.904;14.390;2024-01-30T11:33:12;53.05;;;23.15;;
79640;SDS011;69115;49.904;14.390;2024-01-30T11:35:39;52.10;;;21.98;;
79640;SDS011;69115;49.904;14.390;2024-01-30T11:38:09;51.58;;;23.42;;
79640;SDS011;69115;49.904;14.390;2024-01-30T11:40:37;51.08;;;22.10;;
79640;SDS011;69115;49.904;14.390;2024-01-30T11:43:04;56.20;;;25.23;;
79640;SDS011;69115;49.904;14.390;2024-01-30T11:45:30;50.33;;;23.48;;
79640;SDS011;69115;49.904;14.390;2024-01-30T11:47:57;52.60;;;22.88;;
79640;SDS011;69115;49.904;14.390;2024-01-30T11:50:25;48.45;;;22.27;;
79640;SDS011;69115;49.904;14.390;2024-01-30T11:52:50;45.20;;;20.88;;
79640;SDS011;69115;49.904;14.390;2024-01-30T11:55:16;49.35;;;21.17;;
79640;SDS011;69115;49.904;14.390;2024-01-30T11:57:42;48.40;;;21.15;;
79640;SDS011;69115;49.904;14.390;2024-01-30T12:00:16;45.60;;;20.42;;
79640;SDS011;69115;49.904;14.390;2024-01-30T12:02:43;43.92;;;20.92;;
79640;SDS011;69115;49.904;14.390;2024-01-30T12:05:09;44.92;;;20.95;;
79640;SDS011;69115;49.904;14.390;2024-01-30T12:07:35;44.88;;;21.45;;
79640;SDS011;69115;49.904;14.390;2024-01-30T12:10:01;47.13;;;21.85;;
79640;SDS011;69115;49.904;14.390;2024-01-30T12:12:27;48.08;;;20.98;;
79640;SDS011;69115;49.904;14.390;2024-01-30T12:14:52;48.28;;;22.33;;
79640;SDS011;69115;49.904;14.390;2024-01-30T12:17:31;49.85;;;21.90;;
79640;SDS011;69115;49.904;14.390;2024-01-30T12:20:07;51.97;;;22.67;;
79640;SDS011;69115;49.904;14.390;2024-01-30T12:22:37;49.88;;;22.42;;
79640;SDS011;69115;49.904;14.390;2024-01-30T12:25:13;43.53;;;20.08;;
79640;SDS011;69115;49.904;14.390;2024-01-30T12:27:41;47.45;;;21.45;;
79640;SDS011;69115;49.904;14.390;2024-01-30T12:30:08;51.13;;;22.30;;
79640;SDS011;69115;49.904;14.390;2024-01-30T12:32:35;46.83;;;20.65;;
79640;SDS011;69115;49.904;14.390;2024-01-30T12:35:01;45.85;;;21.65;;
79640;SDS011;69115;49.904;14.390;2024-01-30T12:37:27;49.40;;;22.05;;
79640;SDS011;69115;49.904;14.390;2024-01-30T12:39:52;45.35;;;21.42;;
79640;SDS011;69115;49.904;14.390;2024-01-30T12:42:20;50.15;;;21.75;;
79640;SDS011;69115;49.904;14.390;2024-01-30T12:44:49;49.03;;;22.55;;
79640;SDS011;69115;49.904;14.390;2024-01-30T12:47:14;48.97;;;21.58;;
79640;SDS011;69115;49.904;14.390;2024-01-30T12:49:41;49.40;;;21.95;;
79640;SDS011;69115;49.904;14.390;2024-01-30T12:52:08;47.72;;;22.15;;
79640;SDS011;69115;49.904;14.390;2024-01-30T12:54:33;49.70;;;22.33;;
79640;SDS011;69115;49.904;14.390;2024-01-30T12:56:59;44.95;;;20.98;;
79640;SDS011;69115;49.904;14.390;2024-01-30T12:59:24;49.70;;;22.45;;
79640;SDS011;69115;49.904;14.390;2024-01-30T13:01:49;48.58;;;22.65;;
79640;SDS011;69115;49.904;14.390;2024-01-30T13:04:15;52.05;;;22.80;;
79640;SDS011;69115;49.904;14.390;2024-01-30T13:06:41;45.58;;;21.98;;
79640;SDS011;69115;49.904;14.390;2024-01-30T13:09:07;53.65;;;23.42;;
79640;SDS011;69115;49.904;14.390;2024-01-30T13:11:32;49.83;;;22.30;;
79640;SDS011;69115;49.904;14.390;2024-01-30T13:13:58;51.10;;;23.25;;
79640;SDS011;69115;49.904;14.390;2024-01-30T13:16:23;49.08;;;22.25;;
79640;SDS011;69115;49.904;14.390;2024-01-30T13:18:49;47.60;;;21.85;;
79640;SDS011;69115;49.904;14.390;2024-01-30T13:21:14;48.15;;;21.88;;
79640;SDS011;69115;49.904;14.390;2024-01-30T13:23:41;46.00;;;21.65;;
79640;SDS011;69115;49.904;14.390;2024-01-30T13:26:07;46.60;;;20.95;;
79640;SDS011;69115;49.904;14.390;2024-01-30T13:28:32;47.42;;;21.35;;
79640;SDS011;69115;49.904;14.390;2024-01-30T13:30:58;45.45;;;21.15;;
79640;SDS011;69115;49.904;14.390;2024-01-30T13:33:23;42.33;;;20.38;;
79640;SDS011;69115;49.904;14.390;2024-01-30T13:35:49;44.22;;;20.33;;
79640;SDS011;69115;49.904;14.390;2024-01-30T13:38:14;44.97;;;20.20;;
79640;SDS011;69115;49.904;14.390;2024-01-30T13:40:40;48.00;;;20.65;;
79640;SDS011;69115;49.904;14.390;2024-01-30T13:43:06;42.65;;;20.02;;
79640;SDS011;69115;49.904;14.390;2024-01-30T13:45:31;44.45;;;20.17;;
79640;SDS011;69115;49.904;14.390;2024-01-30T13:47:57;45.50;;;20.50;;
79640;SDS011;69115;49.904;14.390;2024-01-30T13:50:24;42.92;;;20.48;;
79640;SDS011;69115;49.904;14.390;2024-01-30T13:52:49;44.60;;;20.10;;
79640;SDS011;69115;49.904;14.390;2024-01-30T13:55:15;43.53;;;20.20;;
79640;SDS011;69115;49.904;14.390;2024-01-30T13:57:40;43.08;;;20.92;;
79640;SDS011;69115;49.904;14.390;2024-01-30T14:00:06;42.35;;;19.55;;
79640;SDS011;69115;49.904;14.390;2024-01-30T14:02:35;41.90;;;20.25;;
79640;SDS011;69115;49.904;14.390;2024-01-30T14:05:00;41.63;;;20.10;;